CheckWX is a tool to help pilots better visualize weather data.  It is not intended as a substitute for an official pre-flight weather briefing.

15:42:35 UTC

KFVE METAR
Northern Aroostook Regional Airport
Frenchville, Maine, USA
Current

50 mins ago

KFVE 231453Z AUTO 13006KT 10SM BKN110 14/03 A3012 RMK AO2 SLP200 T01440028 58013
Observed
May-23 @ 14:53 UTC
Wind
  • 130° at 6 KTS
Visibility
10 SM
Flight Rules
VFR
Cloud Levels
  • Broken at 11,000' AGL
Temperature
14°C / 57°F
Dewpoint
C / 37°F
Humidity
48%
Altimeter
30.12" Hg
Pressure
1020.02 hPa
Previous

2 hours ago

KFVE 231353Z AUTO 16004KT 10SM FEW120 13/03 A3013 RMK AO2 SLP203 T01280028
Observed
May-23 @ 13:53 UTC
Wind
  • 160° at 4 KTS
Visibility
10 SM
Flight Rules
VFR
Cloud Levels
  • Few at 12,000' AGL
Temperature
13°C / 55°F
Dewpoint
C / 37°F
Humidity
51%
Altimeter
30.13" Hg
Pressure
1020.32 hPa
Previous

3 hours ago

KFVE 231253Z AUTO 13003KT 10SM CLR 11/04 A3015 RMK AO2 SLP213 T01060039
Observed
May-23 @ 12:53 UTC
Wind
  • 130° at 3 KTS
Visibility
10 SM
Flight Rules
VFR
Cloud Levels
  • Clear skies
Temperature
11°C / 52°F
Dewpoint
C / 39°F
Humidity
62%
Altimeter
30.15" Hg
Pressure
1021.02 hPa